createdAt,value
2022-09-09T00:01:28.966Z,83.5
2022-09-09T00:06:22.200Z,83.4
2022-09-09T00:08:48.828Z,83.4
2022-09-09T00:11:13.971Z,83.3
2022-09-09T00:13:40.567Z,83.3
2022-09-09T00:16:07.193Z,83.3
2022-09-09T00:18:33.835Z,83.3
2022-09-09T00:23:27.078Z,83.2
2022-09-09T00:25:53.714Z,83.2
2022-09-09T00:28:20.302Z,83.3
2022-09-09T00:30:46.926Z,83.3
2022-09-09T00:35:40.168Z,83.2
2022-09-09T00:38:06.804Z,83.2
2022-09-09T00:40:33.418Z,83.2
2022-09-09T00:43:00.052Z,83.2
2022-09-09T00:45:26.698Z,83.3
2022-09-09T00:47:53.320Z,83.2
2022-09-09T00:50:19.920Z,83.2
2022-09-09T00:52:46.574Z,83.1
2022-09-09T00:55:11.655Z,83.1
2022-09-09T00:57:38.290Z,83.1
2022-09-09T01:00:04.903Z,83.1
2022-09-09T01:02:31.533Z,83
2022-09-09T01:04:58.152Z,82.9
2022-09-09T01:07:24.779Z,82.9
2022-09-09T01:12:18.025Z,82.8
2022-09-09T01:17:11.287Z,82.8
2022-09-09T01:19:37.889Z,82.7
2022-09-09T01:22:04.527Z,82.7
2022-09-09T01:24:31.152Z,82.7
2022-09-09T01:26:57.803Z,82.7
2022-09-09T01:29:24.391Z,82.7
2022-09-09T01:31:49.549Z,82.7
2022-09-09T01:36:42.789Z,82.7
2022-09-09T01:39:09.412Z,82.7
2022-09-09T01:41:35.995Z,82.7
2022-09-09T01:44:02.628Z,82.7
2022-09-09T01:46:29.259Z,82.8
2022-09-09T01:48:55.882Z,82.7
2022-09-09T01:51:22.550Z,82.7
2022-09-09T01:53:49.144Z,82.7
2022-09-09T01:56:15.739Z,82.7
2022-09-09T02:01:08.997Z,82.6
2022-09-09T02:06:00.748Z,82.6
2022-09-09T02:08:27.357Z,82.6
2022-09-09T02:10:53.988Z,82.6
2022-09-09T02:13:20.622Z,82.6
2022-09-09T02:15:47.242Z,82.6
2022-09-09T02:18:13.854Z,82.6
2022-09-09T02:20:40.489Z,82.6
2022-09-09T02:25:33.735Z,82.6
2022-09-09T02:30:26.968Z,82.7
2022-09-09T02:32:53.588Z,82.7
2022-09-09T02:35:18.732Z,82.7
2022-09-09T02:37:45.348Z,82.7
2022-09-09T02:40:11.960Z,82.7
2022-09-09T02:42:38.587Z,82.7
2022-09-09T02:45:05.226Z,82.7
2022-09-09T02:49:58.487Z,82.8
2022-09-09T02:52:25.098Z,82.8
2022-09-09T02:54:51.696Z,83
2022-09-09T02:57:18.329Z,83
2022-09-09T02:59:44.957Z,83
2022-09-09T03:02:11.575Z,83
2022-09-09T03:04:38.232Z,83
2022-09-09T03:07:03.324Z,83
2022-09-09T03:09:29.949Z,83.1
2022-09-09T03:14:23.205Z,83.3
2022-09-09T03:19:16.444Z,83.2
2022-09-09T03:21:43.062Z,83.3
2022-09-09T03:24:09.703Z,83.3
2022-09-09T03:26:36.341Z,83.4
2022-09-09T03:29:02.947Z,83.4
2022-09-09T03:31:29.547Z,83.3
2022-09-09T03:38:49.419Z,83.3
2022-09-09T03:41:16.046Z,83.3
2022-09-09T03:43:42.672Z,83.3
2022-09-09T03:46:09.292Z,83.2
2022-09-09T03:48:34.425Z,83.2
2022-09-09T03:51:01.045Z,83.2
2022-09-09T03:53:27.661Z,83.2
2022-09-09T03:55:54.293Z,83.1
2022-09-09T03:58:20.914Z,83.1
2022-09-09T04:03:14.218Z,83.1
2022-09-09T04:05:40.776Z,83.1
2022-09-09T04:08:07.388Z,83
2022-09-09T04:10:34.006Z,83
2022-09-09T04:13:00.649Z,82.8
2022-09-09T04:15:27.281Z,82.8
2022-09-09T04:17:53.930Z,82.8
2022-09-09T04:20:19.014Z,82.8
2022-09-09T04:22:45.644Z,82.8
2022-09-09T04:25:12.289Z,82.7
2022-09-09T04:30:05.568Z,82.6
2022-09-09T04:32:32.134Z,82.6
2022-09-09T04:34:58.750Z,82.6
2022-09-09T04:37:25.385Z,82.5
2022-09-09T04:39:52.023Z,82.6
2022-09-09T04:42:18.617Z,82.6
2022-09-09T04:44:45.240Z,82.6
2022-09-09T04:47:11.883Z,82.6
2022-09-09T04:52:05.126Z,82.6
2022-09-09T04:54:31.735Z,82.6
2022-09-09T04:56:58.360Z,82.5
2022-09-09T04:59:24.989Z,82.5
2022-09-09T05:01:51.633Z,82.5
2022-09-09T05:04:16.797Z,82.5
2022-09-09T05:06:43.345Z,82.4
2022-09-09T05:09:09.978Z,82.4
2022-09-09T05:11:36.606Z,82.4
2022-09-09T05:14:03.227Z,82.3
2022-09-09T05:16:29.845Z,82.3
2022-09-09T05:18:56.476Z,82.3
2022-09-09T05:21:23.076Z,82.2
2022-09-09T05:23:49.708Z,82.3
2022-09-09T05:26:16.347Z,82.3
2022-09-09T05:28:42.981Z,82.4
2022-09-09T05:31:08.099Z,82.4
2022-09-09T05:33:33.219Z,82.4
2022-09-09T05:35:59.843Z,82.3
2022-09-09T05:38:26.468Z,82.2
2022-09-09T05:40:53.109Z,82.1
2022-09-09T05:43:19.722Z,82.1
2022-09-09T05:45:46.338Z,82.3
2022-09-09T05:48:13.010Z,82.4
2022-09-09T05:50:39.568Z,82.4
2022-09-09T05:53:06.223Z,82.6
2022-09-09T05:55:32.820Z,82.6
2022-09-09T05:57:59.449Z,84
2022-09-09T06:00:24.631Z,83.9
2022-09-09T06:02:51.191Z,85.6
2022-09-09T06:05:17.817Z,85
2022-09-09T06:07:42.950Z,85.4
2022-09-09T06:10:09.583Z,84.9
2022-09-09T06:12:36.231Z,85.4
2022-09-09T06:17:29.502Z,85.3
2022-09-09T06:19:56.079Z,85.6
2022-09-09T06:22:22.676Z,84.5
2022-09-09T06:24:49.342Z,85.5
2022-09-09T06:27:15.944Z,84.9
2022-09-09T06:29:42.657Z,85.2
2022-09-09T06:32:09.234Z,85.3
2022-09-09T06:34:35.810Z,85.5
2022-09-09T06:37:02.422Z,85.5
2022-09-09T06:39:27.587Z,85.8
2022-09-09T06:41:54.277Z,86.4
2022-09-09T06:44:20.834Z,86.5
2022-09-09T06:46:47.487Z,87.1
2022-09-09T06:49:14.133Z,87.8
2022-09-09T06:51:40.677Z,87.5
2022-09-09T06:56:33.930Z,88.4
2022-09-09T06:59:00.569Z,88.2
2022-09-09T07:01:27.160Z,88.3
2022-09-09T07:03:53.770Z,87.8
2022-09-09T07:06:18.940Z,87.9
2022-09-09T07:08:45.550Z,87.4
2022-09-09T07:11:12.154Z,87.2
2022-09-09T07:13:38.800Z,87.2
2022-09-09T07:16:05.409Z,86.1
2022-09-09T07:18:32.020Z,85.3
2022-09-09T07:20:58.667Z,85.2
2022-09-09T07:25:51.894Z,70.5
2022-09-09T07:28:18.545Z,58.7
2022-09-09T07:30:45.153Z,55.4
2022-09-09T07:33:11.772Z,55.9
2022-09-09T07:35:38.409Z,55
2022-09-09T07:38:05.012Z,57.3
2022-09-09T07:40:30.128Z,62
2022-09-09T07:42:56.806Z,66.8
2022-09-09T07:45:23.400Z,68.5
2022-09-09T07:47:50.008Z,69.8
2022-09-09T07:50:16.675Z,73
2022-09-09T07:52:43.338Z,72.7
2022-09-09T07:55:09.968Z,75.5
2022-09-09T07:57:36.588Z,76.5
2022-09-09T08:00:03.199Z,76.7
2022-09-09T08:02:29.732Z,77.5
2022-09-09T08:04:56.353Z,78.3
2022-09-09T08:07:23.041Z,73.4
2022-09-09T08:09:49.923Z,74.1
2022-09-09T08:12:14.758Z,74
2022-09-09T08:14:41.421Z,65.3
2022-09-09T08:17:08.076Z,52.9
2022-09-09T08:19:34.630Z,49.9
2022-09-09T08:22:01.307Z,47.6
2022-09-09T08:24:27.904Z,46.4
2022-09-09T08:26:54.469Z,46.5
2022-09-09T08:29:21.086Z,46.5
2022-09-09T08:31:47.726Z,44.8
2022-09-09T08:34:14.635Z,44
2022-09-09T08:36:41.004Z,42.6
2022-09-09T08:39:07.582Z,44.5
2022-09-09T08:41:34.245Z,48
2022-09-09T08:43:59.358Z,46.6
2022-09-09T08:46:26.048Z,43.1
2022-09-09T08:48:52.632Z,45.8
2022-09-09T08:51:19.270Z,48.1
2022-09-09T08:53:45.833Z,46.6
2022-09-09T08:56:12.454Z,47.1
2022-09-09T08:58:39.073Z,49.5
2022-09-09T09:01:05.706Z,50.6
2022-09-09T09:03:32.318Z,49.5
2022-09-09T09:05:59.063Z,49.7
2022-09-09T09:08:25.655Z,50.5
2022-09-09T09:10:52.192Z,47.8
2022-09-09T09:13:18.817Z,45.2
2022-09-09T09:15:44.036Z,44
2022-09-09T09:18:10.659Z,43.8
2022-09-09T09:20:37.188Z,45.6
2022-09-09T09:23:03.824Z,48.7
2022-09-09T09:25:30.433Z,47.8
2022-09-09T09:27:57.220Z,44
2022-09-09T09:30:23.759Z,42.6
2022-09-09T09:32:50.341Z,39.9
2022-09-09T09:35:16.918Z,39.6
2022-09-09T09:37:43.791Z,40.4
2022-09-09T09:40:10.190Z,40.7
2022-09-09T09:42:36.868Z,41.1
2022-09-09T09:47:30.080Z,38.8
2022-09-09T09:49:56.735Z,37
2022-09-09T09:52:21.771Z,38.2
2022-09-09T09:54:48.424Z,38.8
2022-09-09T09:57:15.029Z,39.3
2022-09-09T09:59:41.655Z,38.1
2022-09-09T10:02:08.303Z,39.8
2022-09-09T10:04:34.887Z,36.2
2022-09-09T10:07:01.571Z,40.7
2022-09-09T10:14:21.468Z,38.4
2022-09-09T10:16:46.635Z,37.5
2022-09-09T10:19:11.685Z,39.4
2022-09-09T10:24:04.936Z,43.2
2022-09-09T10:26:31.579Z,41.1
2022-09-09T10:33:51.495Z,44.8
2022-09-09T10:36:18.009Z,44
2022-09-09T10:41:11.257Z,45.9
2022-09-09T10:43:37.870Z,44
2022-09-09T10:46:04.518Z,46.6
2022-09-09T10:48:31.197Z,44.6
2022-09-09T10:53:24.380Z,47.3
2022-09-09T10:55:50.996Z,49.6
2022-09-09T10:58:16.124Z,49.9
2022-09-09T11:00:41.285Z,45.6
2022-09-09T11:05:34.483Z,45.1
2022-09-09T11:08:01.164Z,45.7
2022-09-09T11:10:27.740Z,45.3
2022-09-09T11:12:54.391Z,47.4
2022-09-09T11:17:47.624Z,45.8
2022-09-09T11:20:14.287Z,48.1
2022-09-09T11:22:40.893Z,48.8
2022-09-09T11:27:34.175Z,47.6
2022-09-09T11:30:00.754Z,46.6
2022-09-09T11:42:12.500Z,49.9
2022-09-09T11:44:39.088Z,49.2
2022-09-09T11:47:05.701Z,52.1
2022-09-09T11:49:32.585Z,53.7
2022-09-09T11:51:58.913Z,55.2
2022-09-09T11:54:25.613Z,56.4
2022-09-09T11:56:52.246Z,56.8
2022-09-09T11:59:18.803Z,59.2
2022-09-09T12:01:45.438Z,59.4
2022-09-09T12:04:12.087Z,73.8
2022-09-09T12:06:37.212Z,85.1
2022-09-09T12:09:03.669Z,85.8
2022-09-09T12:11:30.442Z,85.2
2022-09-09T12:13:57.082Z,85.4
2022-09-09T12:16:23.724Z,85.5
2022-09-09T12:18:50.170Z,85.2
2022-09-09T12:21:16.917Z,83.7
2022-09-09T12:23:43.483Z,86.3
2022-09-09T12:26:10.163Z,81.6
2022-09-09T12:28:36.681Z,82.6
2022-09-09T12:31:01.807Z,81.8
2022-09-09T12:33:26.932Z,81.2
2022-09-09T12:35:53.696Z,79.8
2022-09-09T12:38:20.287Z,76
2022-09-09T12:40:46.947Z,76.5
2022-09-09T12:43:13.539Z,77.5
2022-09-09T12:45:40.150Z,74.8
2022-09-09T12:48:06.691Z,75
2022-09-09T12:50:33.448Z,72.8
2022-09-09T12:53:00.089Z,76.1
2022-09-09T12:55:26.694Z,74.2
2022-09-09T12:57:53.278Z,73.9
2022-09-09T13:00:18.425Z,76.7
2022-09-09T13:02:45.016Z,76.9
2022-09-09T13:05:10.208Z,79.9
2022-09-09T13:07:36.821Z,72.1
2022-09-09T13:10:03.294Z,70.6
2022-09-09T13:12:30.037Z,76
2022-09-09T13:14:56.682Z,74.6
2022-09-09T13:17:23.270Z,73.8
2022-09-09T13:19:49.884Z,77.4
2022-09-09T13:22:16.519Z,79.2
2022-09-09T13:24:43.165Z,74.8
2022-09-09T13:27:09.792Z,77.1
2022-09-09T13:29:36.281Z,75.7
2022-09-09T13:32:03.015Z,75.7
2022-09-09T13:34:29.659Z,74.8
2022-09-09T13:36:56.295Z,77.5
2022-09-09T13:39:21.425Z,77.2
2022-09-09T13:41:48.036Z,66.7
2022-09-09T13:44:14.672Z,63.9
2022-09-09T13:46:41.224Z,58.7
2022-09-09T13:49:07.908Z,55.6
2022-09-09T13:51:34.394Z,60.6
2022-09-09T13:54:01.134Z,55.2
2022-09-09T13:56:27.814Z,61
2022-09-09T13:58:54.393Z,57.9
2022-09-09T14:01:20.889Z,55.7
2022-09-09T14:03:47.639Z,54.7
2022-09-09T14:06:14.178Z,53
2022-09-09T14:08:40.812Z,53
2022-09-09T14:11:06.024Z,51.1
2022-09-09T14:13:32.650Z,51.8
2022-09-09T14:18:25.753Z,50.8
2022-09-09T14:20:52.515Z,50.9
2022-09-09T14:23:19.137Z,50.9
2022-09-09T14:25:45.630Z,50
2022-09-09T14:28:12.389Z,50.6
2022-09-09T14:30:38.873Z,51.3
2022-09-09T14:33:05.495Z,52.8
2022-09-09T14:35:32.110Z,51.7
2022-09-09T14:37:58.897Z,53.1
2022-09-09T14:40:25.477Z,52.6
2022-09-09T14:42:52.125Z,51.6
2022-09-09T14:45:17.282Z,51.5
2022-09-09T14:47:43.880Z,50.7
2022-09-09T14:50:10.465Z,50.2
2022-09-09T14:52:37.084Z,50.7
2022-09-09T14:55:03.745Z,51
2022-09-09T14:57:30.373Z,51.3
2022-09-09T14:59:56.945Z,49.8
2022-09-09T15:02:23.470Z,50.4
2022-09-09T15:04:50.251Z,50.3
2022-09-09T15:07:16.893Z,48.7
2022-09-09T15:09:43.397Z,48.7
2022-09-09T15:14:36.767Z,49
2022-09-09T15:17:01.845Z,48.5
2022-09-09T15:19:28.482Z,49.1
2022-09-09T15:21:55.132Z,48
2022-09-09T15:24:21.668Z,48.8
2022-09-09T15:26:48.360Z,46.3
2022-09-09T15:29:14.840Z,47.5
2022-09-09T15:31:41.563Z,46.6
2022-09-09T15:34:08.088Z,46.6
2022-09-09T15:36:34.853Z,47.6
2022-09-09T15:39:01.419Z,48
2022-09-09T15:46:21.374Z,48.3
2022-09-09T15:48:47.977Z,49
2022-09-09T15:51:14.574Z,48.8
2022-09-09T15:53:41.176Z,48.4
2022-09-09T15:58:32.947Z,49.6
2022-09-09T16:03:24.736Z,49.6
2022-09-09T16:05:49.852Z,50.5
2022-09-09T16:08:16.331Z,50.9
2022-09-09T16:15:34.704Z,52.3
2022-09-09T16:18:01.464Z,53.7
2022-09-09T16:22:54.724Z,54.3
2022-09-09T16:25:21.291Z,54.9
2022-09-09T16:27:47.952Z,53.8
2022-09-09T16:32:41.175Z,53.1
2022-09-09T16:35:07.684Z,52.3
2022-09-09T16:37:34.316Z,53.5
2022-09-09T16:40:01.037Z,52.4
2022-09-09T16:42:27.670Z,52.9
2022-09-09T16:44:52.733Z,52.9
2022-09-09T16:47:17.871Z,52.4
2022-09-09T16:49:44.591Z,52.4
2022-09-09T16:52:11.082Z,52.1
2022-09-09T16:57:04.294Z,52.5
2022-09-09T17:04:24.287Z,55.8
2022-09-09T17:06:50.900Z,56.5
2022-09-09T17:09:17.503Z,57
2022-09-09T17:11:44.087Z,58
2022-09-09T17:14:10.705Z,59.2
2022-09-09T17:16:37.361Z,60.1
2022-09-09T17:19:02.536Z,60.9
2022-09-09T17:21:29.084Z,61.5
2022-09-09T17:26:22.279Z,63.2
2022-09-09T17:31:15.530Z,67.7
2022-09-09T17:36:08.776Z,68.1
2022-09-09T17:38:35.460Z,69.8
2022-09-09T17:45:55.404Z,68.6
2022-09-09T17:48:22.020Z,69.9
2022-09-09T17:50:47.086Z,70.2
2022-09-09T17:53:13.642Z,71.5
2022-09-09T17:55:40.399Z,71.1
2022-09-09T17:58:06.995Z,71.3
2022-09-09T18:00:33.531Z,72.8
2022-09-09T18:03:00.209Z,72.1
2022-09-09T18:05:26.739Z,73.4
2022-09-09T18:07:53.494Z,72.2
2022-09-09T18:10:20.004Z,73.6
2022-09-09T18:12:46.723Z,75.5
2022-09-09T18:15:13.250Z,77.8
2022-09-09T18:17:39.880Z,76.7
2022-09-09T18:20:06.548Z,79
2022-09-09T18:22:31.681Z,80.7
2022-09-09T18:24:58.309Z,81
2022-09-09T18:29:51.598Z,81.8
2022-09-09T18:32:18.202Z,83.5
2022-09-09T18:34:44.890Z,83.6
2022-09-09T18:37:11.343Z,83.6
2022-09-09T18:39:38.141Z,83.7
2022-09-09T18:42:03.212Z,83.6
2022-09-09T18:44:29.856Z,85.2
2022-09-09T18:46:56.475Z,84.3
2022-09-09T18:49:21.494Z,84.1
2022-09-09T18:51:48.102Z,83.7
2022-09-09T18:54:14.855Z,84.2
2022-09-09T18:56:41.508Z,85.2
2022-09-09T18:59:08.064Z,84.6
2022-09-09T19:01:34.592Z,85.5
2022-09-09T19:04:01.335Z,84.8
2022-09-09T19:11:21.081Z,86.7
2022-09-09T19:13:47.743Z,86.5
2022-09-09T19:16:14.373Z,86.8
2022-09-09T19:18:39.555Z,87.2
2022-09-09T19:23:31.309Z,87.3
2022-09-09T19:25:57.968Z,87.4
2022-09-09T19:28:24.581Z,87.5
2022-09-09T19:30:51.073Z,87.3
2022-09-09T19:33:17.835Z,87.4
2022-09-09T19:35:44.322Z,87.6
2022-09-09T19:38:10.982Z,87.6
2022-09-09T19:40:37.641Z,87.5
2022-09-09T19:43:04.312Z,87.6
2022-09-09T19:45:30.825Z,87.7
2022-09-09T19:47:55.973Z,87.7
2022-09-09T19:50:21.069Z,87.5
2022-09-09T19:52:47.824Z,87.6
2022-09-09T19:55:14.344Z,87.6
2022-09-09T19:57:40.940Z,87.5
2022-09-09T20:00:07.633Z,87.5
2022-09-09T20:02:34.192Z,87.3
2022-09-09T20:05:00.925Z,87.5
2022-09-09T20:07:27.427Z,87.2
2022-09-09T20:09:54.187Z,87.3
2022-09-09T20:12:20.763Z,87.4
2022-09-09T20:14:45.951Z,87.2
2022-09-09T20:17:11.081Z,87.3
2022-09-09T20:22:03.414Z,87.2
2022-09-09T20:24:30.128Z,87
2022-09-09T20:26:56.578Z,87
2022-09-09T20:29:23.338Z,87.1
2022-09-09T20:31:49.979Z,87
2022-09-09T20:34:16.563Z,86.8
2022-09-09T20:36:43.078Z,87.1
2022-09-09T20:39:09.727Z,87
2022-09-09T20:41:36.413Z,87.2
2022-09-09T20:44:03.091Z,87
2022-09-09T20:46:29.636Z,87.2
2022-09-09T20:51:21.431Z,86.8
2022-09-09T20:53:48.039Z,86.8
2022-09-09T20:56:14.642Z,86.7
2022-09-09T20:58:41.195Z,86.6
2022-09-09T21:01:06.394Z,86.6
2022-09-09T21:03:33.042Z,86.1
2022-09-09T21:08:24.757Z,86.3
2022-09-09T21:10:51.317Z,86.4
2022-09-09T21:13:17.973Z,86.4
2022-09-09T21:15:44.646Z,86.6
2022-09-09T21:18:11.275Z,86.6
2022-09-09T21:20:37.857Z,86.6
2022-09-09T21:25:31.027Z,86.2
2022-09-09T21:27:57.649Z,86.1
2022-09-09T21:30:24.432Z,86.1
2022-09-09T21:32:49.539Z,86.3
2022-09-09T21:35:14.667Z,85.8
2022-09-09T21:37:41.292Z,86
2022-09-09T21:40:07.781Z,86
2022-09-09T21:42:34.437Z,86.3
2022-09-09T21:45:01.163Z,86
2022-09-09T21:49:54.288Z,86.2
2022-09-09T21:52:21.005Z,86.1
2022-09-09T21:54:47.603Z,85.9
2022-09-09T21:57:14.285Z,85.8
2022-09-09T21:59:40.867Z,85.9
2022-09-09T22:02:07.557Z,86
2022-09-09T22:04:34.095Z,85.7
2022-09-09T22:07:00.741Z,85.8
2022-09-09T22:09:27.384Z,85.5
2022-09-09T22:11:54.025Z,85.6
2022-09-09T22:14:19.111Z,85.4
2022-09-09T22:16:45.706Z,85.3
2022-09-09T22:19:12.319Z,85.2
2022-09-09T22:21:38.990Z,85.4
2022-09-09T22:24:05.622Z,85.3
2022-09-09T22:26:32.250Z,85.3
2022-09-09T22:28:57.362Z,85.2
2022-09-09T22:31:23.897Z,85.1
2022-09-09T22:33:50.617Z,85
2022-09-09T22:36:15.622Z,85
2022-09-09T22:38:42.331Z,85
2022-09-09T22:41:08.882Z,84.9
2022-09-09T22:43:35.532Z,84.7
2022-09-09T22:46:02.228Z,84.7
2022-09-09T22:48:28.862Z,84.5
2022-09-09T22:50:55.480Z,84.4
2022-09-09T22:53:22.035Z,84.4
2022-09-09T22:55:48.653Z,84.6
2022-09-09T22:58:13.871Z,84.9
2022-09-09T23:00:38.985Z,84.8
2022-09-09T23:03:05.560Z,84.9
2022-09-09T23:05:32.222Z,85.1
2022-09-09T23:07:58.881Z,84.8
2022-09-09T23:10:25.390Z,84.6
2022-09-09T23:12:52.081Z,84.9
2022-09-09T23:15:18.614Z,85
2022-09-09T23:17:45.223Z,84.7
2022-09-09T23:20:11.916Z,84.9
2022-09-09T23:22:38.552Z,84.9
2022-09-09T23:25:05.188Z,84.7
2022-09-09T23:27:30.342Z,84.4
2022-09-09T23:29:56.941Z,84.4
2022-09-09T23:32:23.467Z,84.3
2022-09-09T23:34:50.143Z,84.6
2022-09-09T23:37:16.806Z,85
2022-09-09T23:39:43.354Z,86.2
2022-09-09T23:42:09.972Z,85.9
2022-09-09T23:44:36.709Z,86.1
2022-09-09T23:47:03.202Z,86.7
2022-09-09T23:49:29.942Z,86.6
2022-09-09T23:51:56.476Z,86.2
2022-09-09T23:54:23.070Z,85.5
2022-09-09T23:56:49.705Z,85.4
2022-09-09T23:59:14.869Z,84.6
